This is the latest recevied weather packets stored in our database for station/object KE7JVX-3. If no packets are shown the sender has not sent any weather packets the latest 10 day(s).
| Time | Temp. | Humidity | Pressure | Rain* | Wind** | Luminosity | Snow |
|---|---|---|---|---|---|---|---|
| 1777846982 | 13.89° C | 20% | 1011.1 hPa | 0 mm | - | - | - |
| 1777846767 | 13.89° C | 20% | 1011.1 hPa | 0 mm | - | - | - |
| 1777846465 | 14.44° C | 17% | 1011.1 hPa | 0 mm | - | - | - |
| 1777846167 | 14.44° C | 17% | 1011.1 hPa | 0 mm | - | - | - |
| 1777845826 | 14.44° C | 17% | 1011.4 hPa | 0 mm | - | - | - |
| 1777845567 | 14.44° C | 17% | 1011.4 hPa | 0 mm | - | - | - |
| 1777845342 | 14.44° C | 17% | 1011.3 hPa | 0 mm | - | - | - |
| 1777844967 | 14.44° C | 17% | 1011.3 hPa | 0 mm | - | - | - |
| 1777844367 | 13.89° C | 22% | 1011.6 hPa | 0 mm | - | - | - |
| 1777843767 | 13.89° C | 23% | 1011.7 hPa | 0 mm | - | - | - |
| 1777843167 | 13.89° C | 26% | 1011.8 hPa | 0 mm | - | - | - |
| 1777842567 | 12.78° C | 32% | 1012 hPa | 0 mm | - | - | - |
| 1777841967 | 12.22° C | 30% | 1012.1 hPa | 0 mm | - | - | - |
| 1777841368 | 13.89° C | 28% | 1012.1 hPa | 0 mm | - | - | - |
| 1777840767 | 13.33° C | 30% | 1012.2 hPa | 0 mm | - | - | - |
| 1777840167 | 13.33° C | 29% | 1012.2 hPa | 0 mm | - | - | - |
| 1777839567 | 13.33° C | 29% | 1012.4 hPa | 0 mm | - | - | - |
| 1777838967 | 13.33° C | 31% | 1012.4 hPa | 0 mm | - | - | - |
| 1777838367 | 13.33° C | 30% | 1012.4 hPa | 0 mm | - | - | - |
| 1777837769 | 13.33° C | 29% | 1012.6 hPa | 0 mm | - | - | - |
| 1777837169 | 13.33° C | 30% | 1012.7 hPa | 0 mm | - | - | - |
| 1777836567 | 13.33° C | 31% | 1012.7 hPa | 0 mm | - | - | - |
| 1777835967 | 13.33° C | 31% | 1012.9 hPa | 0 mm | - | - | - |
| 1777835367 | 13.89° C | 33% | 1012.9 hPa | 0 mm | - | - | - |
| 1777834768 | 13.33° C | 33% | 1013 hPa | 0 mm | - | - | - |
* Rain latest hour (hover to see other rain measurements)
** Current wind speed in m/s (hover to see current wind gust speed)